sensor_id;sensor_type;location;lat;lon;timestamp;temperature;humidity
30174;DHT22;16985;50.814;8.530;2022-07-19T00:00:35;19.60;66.90
30174;DHT22;16985;50.814;8.530;2022-07-19T00:03:00;19.40;67.10
30174;DHT22;16985;50.814;8.530;2022-07-19T00:05:26;19.40;68.20
30174;DHT22;16985;50.814;8.530;2022-07-19T00:07:52;19.30;67.70
30174;DHT22;16985;50.814;8.530;2022-07-19T00:10:18;19.30;67.90
30174;DHT22;16985;50.814;8.530;2022-07-19T00:12:46;19.30;67.90
30174;DHT22;16985;50.814;8.530;2022-07-19T00:15:13;19.20;67.80
30174;DHT22;16985;50.814;8.530;2022-07-19T00:17:45;19.10;68.00
30174;DHT22;16985;50.814;8.530;2022-07-19T00:20:15;19.10;68.20
30174;DHT22;16985;50.814;8.530;2022-07-19T00:22:42;19.00;68.30
30174;DHT22;16985;50.814;8.530;2022-07-19T00:25:08;19.00;68.70
30174;DHT22;16985;50.814;8.530;2022-07-19T00:27:34;18.90;68.80
30174;DHT22;16985;50.814;8.530;2022-07-19T00:30:00;18.90;68.80
30174;DHT22;16985;50.814;8.530;2022-07-19T00:32:26;18.80;68.70
30174;DHT22;16985;50.814;8.530;2022-07-19T00:34:52;18.80;68.90
30174;DHT22;16985;50.814;8.530;2022-07-19T00:37:18;18.70;68.90
30174;DHT22;16985;50.814;8.530;2022-07-19T00:39:43;18.70;69.30
30174;DHT22;16985;50.814;8.530;2022-07-19T00:42:09;18.60;69.50
30174;DHT22;16985;50.814;8.530;2022-07-19T00:44:35;18.60;69.80
30174;DHT22;16985;50.814;8.530;2022-07-19T00:47:02;18.60;70.10
30174;DHT22;16985;50.814;8.530;2022-07-19T00:49:28;18.50;70.00
30174;DHT22;16985;50.814;8.530;2022-07-19T00:51:54;18.50;69.90
30174;DHT22;16985;50.814;8.530;2022-07-19T00:54:21;18.40;69.80
30174;DHT22;16985;50.814;8.530;2022-07-19T00:56:49;18.40;69.90
30174;DHT22;16985;50.814;8.530;2022-07-19T00:59:17;18.40;69.60
30174;DHT22;16985;50.814;8.530;2022-07-19T01:01:44;18.20;69.90
30174;DHT22;16985;50.814;8.530;2022-07-19T01:04:11;18.20;70.70
30174;DHT22;16985;50.814;8.530;2022-07-19T01:06:37;18.20;70.50
30174;DHT22;16985;50.814;8.530;2022-07-19T01:09:03;18.20;70.50
30174;DHT22;16985;50.814;8.530;2022-07-19T01:11:30;18.10;70.60
30174;DHT22;16985;50.814;8.530;2022-07-19T01:13:56;18.10;70.50
30174;DHT22;16985;50.814;8.530;2022-07-19T01:16:22;18.10;70.70
30174;DHT22;16985;50.814;8.530;2022-07-19T01:18:48;18.00;70.60
30174;DHT22;16985;50.814;8.530;2022-07-19T01:21:20;18.00;70.90
30174;DHT22;16985;50.814;8.530;2022-07-19T01:23:47;18.00;70.90
30174;DHT22;16985;50.814;8.530;2022-07-19T01:26:13;17.90;70.80
30174;DHT22;16985;50.814;8.530;2022-07-19T01:28:39;17.80;71.00
30174;DHT22;16985;50.814;8.530;2022-07-19T01:31:05;17.80;71.60
30174;DHT22;16985;50.814;8.530;2022-07-19T01:33:31;17.70;72.80
30174;DHT22;16985;50.814;8.530;2022-07-19T01:35:56;17.70;72.30
30174;DHT22;16985;50.814;8.530;2022-07-19T01:38:22;17.60;72.00
30174;DHT22;16985;50.814;8.530;2022-07-19T01:40:48;17.70;71.90
30174;DHT22;16985;50.814;8.530;2022-07-19T01:43:14;17.70;71.70
30174;DHT22;16985;50.814;8.530;2022-07-19T01:45:39;17.60;72.00
30174;DHT22;16985;50.814;8.530;2022-07-19T01:48:05;17.60;72.10
30174;DHT22;16985;50.814;8.530;2022-07-19T01:50:31;17.50;72.10
30174;DHT22;16985;50.814;8.530;2022-07-19T01:52:57;17.50;72.30
30174;DHT22;16985;50.814;8.530;2022-07-19T01:55:23;17.40;72.70
30174;DHT22;16985;50.814;8.530;2022-07-19T01:57:49;17.40;72.50
30174;DHT22;16985;50.814;8.530;2022-07-19T02:00:16;17.40;72.50
30174;DHT22;16985;50.814;8.530;2022-07-19T02:02:42;17.30;72.60
30174;DHT22;16985;50.814;8.530;2022-07-19T02:05:08;17.30;73.10
30174;DHT22;16985;50.814;8.530;2022-07-19T02:07:34;17.20;73.50
30174;DHT22;16985;50.814;8.530;2022-07-19T02:10:00;17.20;73.50
30174;DHT22;16985;50.814;8.530;2022-07-19T02:12:26;17.10;73.80
30174;DHT22;16985;50.814;8.530;2022-07-19T02:14:52;16.90;73.80
30174;DHT22;16985;50.814;8.530;2022-07-19T02:17:17;17.00;74.00
30174;DHT22;16985;50.814;8.530;2022-07-19T02:19:43;17.00;73.40
30174;DHT22;16985;50.814;8.530;2022-07-19T02:22:09;16.90;73.20
30174;DHT22;16985;50.814;8.530;2022-07-19T02:24:35;17.00;73.50
30174;DHT22;16985;50.814;8.530;2022-07-19T02:27:00;16.90;73.60
30174;DHT22;16985;50.814;8.530;2022-07-19T02:29:26;16.90;73.40
30174;DHT22;16985;50.814;8.530;2022-07-19T02:31:52;16.90;73.30
30174;DHT22;16985;50.814;8.530;2022-07-19T02:34:18;16.90;73.30
30174;DHT22;16985;50.814;8.530;2022-07-19T02:36:43;16.90;73.30
30174;DHT22;16985;50.814;8.530;2022-07-19T02:39:09;16.90;73.60
30174;DHT22;16985;50.814;8.530;2022-07-19T02:41:35;16.70;74.10
30174;DHT22;16985;50.814;8.530;2022-07-19T02:44:01;16.70;74.60
30174;DHT22;16985;50.814;8.530;2022-07-19T02:46:26;16.60;74.60
30174;DHT22;16985;50.814;8.530;2022-07-19T02:48:52;16.60;74.80
30174;DHT22;16985;50.814;8.530;2022-07-19T02:51:18;16.50;75.10
30174;DHT22;16985;50.814;8.530;2022-07-19T02:53:44;16.50;75.20
30174;DHT22;16985;50.814;8.530;2022-07-19T02:56:09;16.40;75.20
30174;DHT22;16985;50.814;8.530;2022-07-19T02:58:35;16.40;75.30
30174;DHT22;16985;50.814;8.530;2022-07-19T03:01:01;16.40;75.50
30174;DHT22;16985;50.814;8.530;2022-07-19T03:03:27;16.40;75.10
30174;DHT22;16985;50.814;8.530;2022-07-19T03:06:14;16.40;74.90
30174;DHT22;16985;50.814;8.530;2022-07-19T03:08:41;16.40;75.10
30174;DHT22;16985;50.814;8.530;2022-07-19T03:11:07;16.30;75.40
30174;DHT22;16985;50.814;8.530;2022-07-19T03:13:33;16.30;75.40
30174;DHT22;16985;50.814;8.530;2022-07-19T03:15:58;16.20;75.70
30174;DHT22;16985;50.814;8.530;2022-07-19T03:18:24;16.20;75.50
30174;DHT22;16985;50.814;8.530;2022-07-19T03:20:50;16.20;75.70
30174;DHT22;16985;50.814;8.530;2022-07-19T03:23:16;16.10;76.00
30174;DHT22;16985;50.814;8.530;2022-07-19T03:25:41;16.10;76.00
30174;DHT22;16985;50.814;8.530;2022-07-19T03:28:07;16.10;76.00
30174;DHT22;16985;50.814;8.530;2022-07-19T03:30:33;16.00;76.00
30174;DHT22;16985;50.814;8.530;2022-07-19T03:32:59;16.00;76.10
30174;DHT22;16985;50.814;8.530;2022-07-19T03:35:25;16.00;76.30
30174;DHT22;16985;50.814;8.530;2022-07-19T03:37:51;15.90;76.30
30174;DHT22;16985;50.814;8.530;2022-07-19T03:40:17;15.90;76.50
30174;DHT22;16985;50.814;8.530;2022-07-19T03:42:43;15.90;76.60
30174;DHT22;16985;50.814;8.530;2022-07-19T03:45:09;15.90;76.70
30174;DHT22;16985;50.814;8.530;2022-07-19T03:47:35;15.80;76.70
30174;DHT22;16985;50.814;8.530;2022-07-19T03:50:01;15.80;76.70
30174;DHT22;16985;50.814;8.530;2022-07-19T03:52:27;15.80;76.90
30174;DHT22;16985;50.814;8.530;2022-07-19T03:54:52;15.70;76.90
30174;DHT22;16985;50.814;8.530;2022-07-19T03:57:18;15.70;77.10
30174;DHT22;16985;50.814;8.530;2022-07-19T03:59:44;15.70;77.10
30174;DHT22;16985;50.814;8.530;2022-07-19T04:02:10;15.70;77.10
30174;DHT22;16985;50.814;8.530;2022-07-19T04:04:36;15.70;77.30
30174;DHT22;16985;50.814;8.530;2022-07-19T04:07:01;15.70;77.30
30174;DHT22;16985;50.814;8.530;2022-07-19T04:09:27;15.70;77.50
30174;DHT22;16985;50.814;8.530;2022-07-19T04:11:53;15.60;77.60
30174;DHT22;16985;50.814;8.530;2022-07-19T04:14:19;15.60;77.50
30174;DHT22;16985;50.814;8.530;2022-07-19T04:16:45;15.60;77.70
30174;DHT22;16985;50.814;8.530;2022-07-19T04:19:10;15.60;77.90
30174;DHT22;16985;50.814;8.530;2022-07-19T04:21:36;15.60;77.90
30174;DHT22;16985;50.814;8.530;2022-07-19T04:24:02;15.60;78.20
30174;DHT22;16985;50.814;8.530;2022-07-19T04:26:28;15.50;78.20
30174;DHT22;16985;50.814;8.530;2022-07-19T04:28:54;15.50;78.40
30174;DHT22;16985;50.814;8.530;2022-07-19T04:31:20;15.50;78.80
30174;DHT22;16985;50.814;8.530;2022-07-19T04:33:46;15.50;79.20
30174;DHT22;16985;50.814;8.530;2022-07-19T04:36:11;15.40;79.20
30174;DHT22;16985;50.814;8.530;2022-07-19T04:38:37;15.40;79.10
30174;DHT22;16985;50.814;8.530;2022-07-19T04:41:03;15.40;79.30
30174;DHT22;16985;50.814;8.530;2022-07-19T04:43:30;15.50;79.50
30174;DHT22;16985;50.814;8.530;2022-07-19T04:45:55;15.50;79.50
30174;DHT22;16985;50.814;8.530;2022-07-19T04:48:25;15.50;79.80
30174;DHT22;16985;50.814;8.530;2022-07-19T04:50:52;15.50;79.90
30174;DHT22;16985;50.814;8.530;2022-07-19T04:53:18;15.50;79.80
30174;DHT22;16985;50.814;8.530;2022-07-19T04:55:43;15.50;80.00
30174;DHT22;16985;50.814;8.530;2022-07-19T04:58:09;15.50;79.90
30174;DHT22;16985;50.814;8.530;2022-07-19T05:00:35;15.50;79.80
30174;DHT22;16985;50.814;8.530;2022-07-19T05:03:01;15.50;79.80
30174;DHT22;16985;50.814;8.530;2022-07-19T05:05:26;15.40;80.00
30174;DHT22;16985;50.814;8.530;2022-07-19T05:07:52;15.50;80.50
30174;DHT22;16985;50.814;8.530;2022-07-19T05:10:18;15.50;80.30
30174;DHT22;16985;50.814;8.530;2022-07-19T05:12:44;15.50;80.50
30174;DHT22;16985;50.814;8.530;2022-07-19T05:15:10;15.60;80.80
30174;DHT22;16985;50.814;8.530;2022-07-19T05:17:36;15.60;81.40
30174;DHT22;16985;50.814;8.530;2022-07-19T05:20:03;15.60;80.80
30174;DHT22;16985;50.814;8.530;2022-07-19T05:22:30;15.60;80.80
30174;DHT22;16985;50.814;8.530;2022-07-19T05:24:56;15.60;81.70
30174;DHT22;16985;50.814;8.530;2022-07-19T05:27:22;15.60;81.10
30174;DHT22;16985;50.814;8.530;2022-07-19T05:29:48;15.70;81.30
30174;DHT22;16985;50.814;8.530;2022-07-19T05:32:14;15.70;81.10
30174;DHT22;16985;50.814;8.530;2022-07-19T05:34:39;15.80;81.50
30174;DHT22;16985;50.814;8.530;2022-07-19T05:37:06;15.80;81.20
30174;DHT22;16985;50.814;8.530;2022-07-19T05:39:31;15.80;81.00
30174;DHT22;16985;50.814;8.530;2022-07-19T05:41:57;15.80;81.10
30174;DHT22;16985;50.814;8.530;2022-07-19T05:44:23;15.80;81.30
30174;DHT22;16985;50.814;8.530;2022-07-19T05:46:49;15.90;81.30
30174;DHT22;16985;50.814;8.530;2022-07-19T05:49:15;15.90;81.50
30174;DHT22;16985;50.814;8.530;2022-07-19T05:51:41;16.00;81.80
30174;DHT22;16985;50.814;8.530;2022-07-19T05:54:07;16.10;81.80
30174;DHT22;16985;50.814;8.530;2022-07-19T05:56:33;16.10;82.00
30174;DHT22;16985;50.814;8.530;2022-07-19T05:58:59;16.20;82.50
30174;DHT22;16985;50.814;8.530;2022-07-19T06:01:27;16.20;82.60
30174;DHT22;16985;50.814;8.530;2022-07-19T06:03:55;16.30;83.70
30174;DHT22;16985;50.814;8.530;2022-07-19T06:06:30;16.30;83.00
30174;DHT22;16985;50.814;8.530;2022-07-19T06:09:00;16.30;83.20
30174;DHT22;16985;50.814;8.530;2022-07-19T06:11:27;16.40;83.90
30174;DHT22;16985;50.814;8.530;2022-07-19T06:13:54;16.50;84.30
30174;DHT22;16985;50.814;8.530;2022-07-19T06:16:20;16.50;84.80
30174;DHT22;16985;50.814;8.530;2022-07-19T06:18:46;16.60;84.60
30174;DHT22;16985;50.814;8.530;2022-07-19T06:21:15;16.70;84.30
30174;DHT22;16985;50.814;8.530;2022-07-19T06:23:44;16.70;84.50
30174;DHT22;16985;50.814;8.530;2022-07-19T06:26:11;16.80;84.30
30174;DHT22;16985;50.814;8.530;2022-07-19T06:28:38;16.90;84.40
30174;DHT22;16985;50.814;8.530;2022-07-19T06:31:08;17.00;84.30
30174;DHT22;16985;50.814;8.530;2022-07-19T06:33:34;17.00;84.30
30174;DHT22;16985;50.814;8.530;2022-07-19T06:36:00;17.10;84.40
30174;DHT22;16985;50.814;8.530;2022-07-19T06:38:26;17.20;84.70
30174;DHT22;16985;50.814;8.530;2022-07-19T06:40:52;17.30;84.60
30174;DHT22;16985;50.814;8.530;2022-07-19T06:43:17;17.40;84.50
30174;DHT22;16985;50.814;8.530;2022-07-19T06:45:43;17.50;84.40
30174;DHT22;16985;50.814;8.530;2022-07-19T06:48:09;17.60;83.50
30174;DHT22;16985;50.814;8.530;2022-07-19T06:50:35;17.70;82.80
30174;DHT22;16985;50.814;8.530;2022-07-19T06:53:00;17.90;82.20
30174;DHT22;16985;50.814;8.530;2022-07-19T06:55:29;18.00;82.10
30174;DHT22;16985;50.814;8.530;2022-07-19T06:57:55;18.20;81.90
30174;DHT22;16985;50.814;8.530;2022-07-19T07:00:21;18.30;81.80
30174;DHT22;16985;50.814;8.530;2022-07-19T07:02:47;18.40;81.70
30174;DHT22;16985;50.814;8.530;2022-07-19T07:05:13;18.50;82.20
30174;DHT22;16985;50.814;8.530;2022-07-19T07:07:39;18.50;82.20
30174;DHT22;16985;50.814;8.530;2022-07-19T07:10:08;18.70;82.30
30174;DHT22;16985;50.814;8.530;2022-07-19T07:12:34;18.90;82.30
30174;DHT22;16985;50.814;8.530;2022-07-19T07:15:00;19.00;81.80
30174;DHT22;16985;50.814;8.530;2022-07-19T07:17:26;19.20;81.20
30174;DHT22;16985;50.814;8.530;2022-07-19T07:19:52;19.30;80.70
30174;DHT22;16985;50.814;8.530;2022-07-19T07:22:18;19.50;80.10
30174;DHT22;16985;50.814;8.530;2022-07-19T07:24:44;19.60;79.90
30174;DHT22;16985;50.814;8.530;2022-07-19T07:27:10;19.80;79.90
30174;DHT22;16985;50.814;8.530;2022-07-19T07:29:36;19.80;79.80
30174;DHT22;16985;50.814;8.530;2022-07-19T07:32:02;20.10;79.50
30174;DHT22;16985;50.814;8.530;2022-07-19T07:34:28;20.20;79.20
30174;DHT22;16985;50.814;8.530;2022-07-19T07:36:53;20.30;78.90
30174;DHT22;16985;50.814;8.530;2022-07-19T07:39:19;20.50;78.80
30174;DHT22;16985;50.814;8.530;2022-07-19T07:41:45;20.60;77.60
30174;DHT22;16985;50.814;8.530;2022-07-19T07:44:11;20.80;77.00
30174;DHT22;16985;50.814;8.530;2022-07-19T07:46:36;21.00;75.40
30174;DHT22;16985;50.814;8.530;2022-07-19T07:49:02;21.10;73.90
30174;DHT22;16985;50.814;8.530;2022-07-19T07:51:28;21.40;73.00
30174;DHT22;16985;50.814;8.530;2022-07-19T07:53:54;21.50;72.40
30174;DHT22;16985;50.814;8.530;2022-07-19T07:56:20;21.70;71.40
30174;DHT22;16985;50.814;8.530;2022-07-19T07:58:46;21.90;71.00
30174;DHT22;16985;50.814;8.530;2022-07-19T08:01:13;22.00;70.00
30174;DHT22;16985;50.814;8.530;2022-07-19T08:03:41;22.20;69.10
30174;DHT22;16985;50.814;8.530;2022-07-19T08:06:07;22.50;68.50
30174;DHT22;16985;50.814;8.530;2022-07-19T08:08:33;22.50;67.30
30174;DHT22;16985;50.814;8.530;2022-07-19T08:10:59;22.70;66.80
30174;DHT22;16985;50.814;8.530;2022-07-19T08:13:25;22.90;65.70
30174;DHT22;16985;50.814;8.530;2022-07-19T08:15:51;23.10;64.90
30174;DHT22;16985;50.814;8.530;2022-07-19T08:18:17;23.20;64.80
30174;DHT22;16985;50.814;8.530;2022-07-19T08:20:43;23.50;64.40
30174;DHT22;16985;50.814;8.530;2022-07-19T08:23:09;23.60;62.90
30174;DHT22;16985;50.814;8.530;2022-07-19T08:25:35;23.90;62.60
30174;DHT22;16985;50.814;8.530;2022-07-19T08:28:02;24.10;61.90
30174;DHT22;16985;50.814;8.530;2022-07-19T08:30:29;24.20;61.20
30174;DHT22;16985;50.814;8.530;2022-07-19T08:32:55;24.50;60.00
30174;DHT22;16985;50.814;8.530;2022-07-19T08:35:22;24.60;59.70
30174;DHT22;16985;50.814;8.530;2022-07-19T08:37:47;24.90;59.80
30174;DHT22;16985;50.814;8.530;2022-07-19T08:40:13;25.10;59.20
30174;DHT22;16985;50.814;8.530;2022-07-19T08:42:39;25.30;59.10
30174;DHT22;16985;50.814;8.530;2022-07-19T08:45:09;25.50;57.60
30174;DHT22;16985;50.814;8.530;2022-07-19T08:47:37;25.70;56.80
30174;DHT22;16985;50.814;8.530;2022-07-19T08:50:08;25.90;55.90
30174;DHT22;16985;50.814;8.530;2022-07-19T08:52:37;26.10;55.10
30174;DHT22;16985;50.814;8.530;2022-07-19T08:55:04;26.30;54.50
30174;DHT22;16985;50.814;8.530;2022-07-19T08:57:30;26.50;53.20
30174;DHT22;16985;50.814;8.530;2022-07-19T09:00:15;26.70;53.20
30174;DHT22;16985;50.814;8.530;2022-07-19T09:02:52;26.90;52.50
30174;DHT22;16985;50.814;8.530;2022-07-19T09:05:20;27.20;52.00
30174;DHT22;16985;50.814;8.530;2022-07-19T09:10:25;27.50;50.40
30174;DHT22;16985;50.814;8.530;2022-07-19T09:12:58;27.60;49.70
30174;DHT22;16985;50.814;8.530;2022-07-19T09:15:40;27.80;49.60
30174;DHT22;16985;50.814;8.530;2022-07-19T09:20:47;28.10;48.20
30174;DHT22;16985;50.814;8.530;2022-07-19T09:23:14;28.30;48.00
30174;DHT22;16985;50.814;8.530;2022-07-19T09:25:49;28.50;46.30
30174;DHT22;16985;50.814;8.530;2022-07-19T09:28:18;28.70;46.40
30174;DHT22;16985;50.814;8.530;2022-07-19T09:30:47;28.90;46.70
30174;DHT22;16985;50.814;8.530;2022-07-19T09:35:59;29.20;46.00
30174;DHT22;16985;50.814;8.530;2022-07-19T09:38:33;29.30;43.50
30174;DHT22;16985;50.814;8.530;2022-07-19T09:46:49;29.90;43.40
30174;DHT22;16985;50.814;8.530;2022-07-19T09:49:17;30.00;43.30
30174;DHT22;16985;50.814;8.530;2022-07-19T09:51:45;30.10;42.60
30174;DHT22;16985;50.814;8.530;2022-07-19T09:54:15;30.20;42.00
30174;DHT22;16985;50.814;8.530;2022-07-19T09:56:43;30.40;42.40
30174;DHT22;16985;50.814;8.530;2022-07-19T09:59:10;30.50;42.60
30174;DHT22;16985;50.814;8.530;2022-07-19T10:01:36;30.60;42.60
30174;DHT22;16985;50.814;8.530;2022-07-19T10:04:12;30.80;42.50
30174;DHT22;16985;50.814;8.530;2022-07-19T10:06:40;30.90;42.50
30174;DHT22;16985;50.814;8.530;2022-07-19T10:09:09;31.10;42.30
30174;DHT22;16985;50.814;8.530;2022-07-19T10:11:37;31.20;42.00
30174;DHT22;16985;50.814;8.530;2022-07-19T10:14:04;31.40;41.90
30174;DHT22;16985;50.814;8.530;2022-07-19T10:16:51;31.50;41.80
30174;DHT22;16985;50.814;8.530;2022-07-19T10:19:38;31.70;40.70
30174;DHT22;16985;50.814;8.530;2022-07-19T10:22:14;31.80;40.60
30174;DHT22;16985;50.814;8.530;2022-07-19T10:27:13;32.10;39.80
30174;DHT22;16985;50.814;8.530;2022-07-19T10:29:39;32.20;38.60
30174;DHT22;16985;50.814;8.530;2022-07-19T10:32:08;32.40;38.10
30174;DHT22;16985;50.814;8.530;2022-07-19T10:34:35;32.40;37.50
30174;DHT22;16985;50.814;8.530;2022-07-19T10:37:01;32.60;37.90
30174;DHT22;16985;50.814;8.530;2022-07-19T10:39:35;32.70;38.20
30174;DHT22;16985;50.814;8.530;2022-07-19T10:42:08;32.90;38.60
30174;DHT22;16985;50.814;8.530;2022-07-19T10:50:19;33.20;38.00
30174;DHT22;16985;50.814;8.530;2022-07-19T10:52:47;33.40;37.50
30174;DHT22;16985;50.814;8.530;2022-07-19T10:58:27;33.70;36.80
30174;DHT22;16985;50.814;8.530;2022-07-19T11:00:44;33.80;36.40
30174;DHT22;16985;50.814;8.530;2022-07-19T11:05:55;34.10;35.70
30174;DHT22;16985;50.814;8.530;2022-07-19T11:08:41;34.10;35.70
30174;DHT22;16985;50.814;8.530;2022-07-19T11:11:10;34.20;36.00
30174;DHT22;16985;50.814;8.530;2022-07-19T11:13:44;34.30;35.60
30174;DHT22;16985;50.814;8.530;2022-07-19T11:16:17;34.40;35.80
30174;DHT22;16985;50.814;8.530;2022-07-19T11:18:44;34.50;36.00
30174;DHT22;16985;50.814;8.530;2022-07-19T11:21:11;34.60;36.10
30174;DHT22;16985;50.814;8.530;2022-07-19T11:23:39;34.70;35.60
30174;DHT22;16985;50.814;8.530;2022-07-19T11:26:14;34.90;35.40
30174;DHT22;16985;50.814;8.530;2022-07-19T11:28:44;34.90;35.10
30174;DHT22;16985;50.814;8.530;2022-07-19T11:31:18;35.20;35.30
30174;DHT22;16985;50.814;8.530;2022-07-19T11:33:45;35.20;34.50
30174;DHT22;16985;50.814;8.530;2022-07-19T11:36:13;35.40;33.60
30174;DHT22;16985;50.814;8.530;2022-07-19T11:38:48;35.40;33.90
30174;DHT22;16985;50.814;8.530;2022-07-19T11:41:24;35.50;34.20
30174;DHT22;16985;50.814;8.530;2022-07-19T11:46:26;35.70;34.00
30174;DHT22;16985;50.814;8.530;2022-07-19T11:49:02;35.70;33.90
30174;DHT22;16985;50.814;8.530;2022-07-19T11:51:29;35.90;33.30
30174;DHT22;16985;50.814;8.530;2022-07-19T11:53:58;35.90;33.00
30174;DHT22;16985;50.814;8.530;2022-07-19T11:56:29;36.10;31.50
30174;DHT22;16985;50.814;8.530;2022-07-19T11:58:58;36.20;31.30
30174;DHT22;16985;50.814;8.530;2022-07-19T12:01:36;36.30;31.40
30174;DHT22;16985;50.814;8.530;2022-07-19T12:04:06;36.40;31.20
30174;DHT22;16985;50.814;8.530;2022-07-19T12:06:41;36.50;31.40
30174;DHT22;16985;50.814;8.530;2022-07-19T12:11:50;36.70;30.50
30174;DHT22;16985;50.814;8.530;2022-07-19T12:14:29;36.90;30.90
30174;DHT22;16985;50.814;8.530;2022-07-19T12:17:20;36.90;31.40
30174;DHT22;16985;50.814;8.530;2022-07-19T12:19:47;37.00;31.50
30174;DHT22;16985;50.814;8.530;2022-07-19T12:22:33;37.10;31.40
30174;DHT22;16985;50.814;8.530;2022-07-19T12:25:03;37.10;30.40
30174;DHT22;16985;50.814;8.530;2022-07-19T12:27:31;37.20;30.20
30174;DHT22;16985;50.814;8.530;2022-07-19T12:29:59;37.30;30.60
30174;DHT22;16985;50.814;8.530;2022-07-19T12:32:28;37.30;30.60
30174;DHT22;16985;50.814;8.530;2022-07-19T12:34:57;37.20;31.20
30174;DHT22;16985;50.814;8.530;2022-07-19T12:37:42;37.30;31.60
30174;DHT22;16985;50.814;8.530;2022-07-19T12:40:24;37.30;31.60
30174;DHT22;16985;50.814;8.530;2022-07-19T12:42:58;37.40;31.30
30174;DHT22;16985;50.814;8.530;2022-07-19T12:45:41;37.50;31.10
30174;DHT22;16985;50.814;8.530;2022-07-19T12:48:11;37.70;30.70
30174;DHT22;16985;50.814;8.530;2022-07-19T12:50:42;37.70;30.30
30174;DHT22;16985;50.814;8.530;2022-07-19T12:53:11;37.80;30.40
30174;DHT22;16985;50.814;8.530;2022-07-19T12:55:41;37.80;31.10
30174;DHT22;16985;50.814;8.530;2022-07-19T12:58:12;37.80;31.50
30174;DHT22;16985;50.814;8.530;2022-07-19T13:00:39;37.80;31.20
30174;DHT22;16985;50.814;8.530;2022-07-19T13:03:07;37.90;31.10
30174;DHT22;16985;50.814;8.530;2022-07-19T13:05:34;38.00;31.10
30174;DHT22;16985;50.814;8.530;2022-07-19T13:08:00;38.00;30.60
30174;DHT22;16985;50.814;8.530;2022-07-19T13:10:27;38.10;30.70
30174;DHT22;16985;50.814;8.530;2022-07-19T13:12:53;38.00;30.20
30174;DHT22;16985;50.814;8.530;2022-07-19T13:15:19;38.10;30.00
30174;DHT22;16985;50.814;8.530;2022-07-19T13:17:46;38.10;30.10
30174;DHT22;16985;50.814;8.530;2022-07-19T13:20:13;38.20;30.30
30174;DHT22;16985;50.814;8.530;2022-07-19T13:22:40;38.20;30.40
30174;DHT22;16985;50.814;8.530;2022-07-19T13:25:07;38.30;30.30
30174;DHT22;16985;50.814;8.530;2022-07-19T13:27:34;38.30;29.90
30174;DHT22;16985;50.814;8.530;2022-07-19T13:30:00;38.40;30.00
30174;DHT22;16985;50.814;8.530;2022-07-19T13:32:26;38.40;30.00
30174;DHT22;16985;50.814;8.530;2022-07-19T13:34:52;38.40;30.10
30174;DHT22;16985;50.814;8.530;2022-07-19T13:37:18;38.30;30.10
30174;DHT22;16985;50.814;8.530;2022-07-19T13:39:44;38.30;30.30
30174;DHT22;16985;50.814;8.530;2022-07-19T13:42:09;38.40;30.20
30174;DHT22;16985;50.814;8.530;2022-07-19T13:44:35;38.40;29.60
30174;DHT22;16985;50.814;8.530;2022-07-19T13:47:01;38.40;29.90
30174;DHT22;16985;50.814;8.530;2022-07-19T13:49:27;38.40;30.20
30174;DHT22;16985;50.814;8.530;2022-07-19T13:51:53;38.50;30.00
30174;DHT22;16985;50.814;8.530;2022-07-19T13:54:18;38.70;29.60
30174;DHT22;16985;50.814;8.530;2022-07-19T13:56:44;38.70;29.20
30174;DHT22;16985;50.814;8.530;2022-07-19T13:59:10;38.70;29.10
30174;DHT22;16985;50.814;8.530;2022-07-19T14:01:36;38.60;29.70
30174;DHT22;16985;50.814;8.530;2022-07-19T14:04:02;38.60;29.80
30174;DHT22;16985;50.814;8.530;2022-07-19T14:06:28;38.60;30.10
30174;DHT22;16985;50.814;8.530;2022-07-19T14:08:54;38.60;30.00
30174;DHT22;16985;50.814;8.530;2022-07-19T14:11:20;38.60;29.90
30174;DHT22;16985;50.814;8.530;2022-07-19T14:13:46;38.60;30.00
30174;DHT22;16985;50.814;8.530;2022-07-19T14:16:12;38.60;30.00
30174;DHT22;16985;50.814;8.530;2022-07-19T14:18:38;38.50;30.00
30174;DHT22;16985;50.814;8.530;2022-07-19T14:21:04;38.50;29.90
30174;DHT22;16985;50.814;8.530;2022-07-19T14:23:30;38.40;29.80
30174;DHT22;16985;50.814;8.530;2022-07-19T14:25:56;38.60;29.80
30174;DHT22;16985;50.814;8.530;2022-07-19T14:28:23;38.60;29.50
30174;DHT22;16985;50.814;8.530;2022-07-19T14:30:52;38.60;29.50
30174;DHT22;16985;50.814;8.530;2022-07-19T14:33:18;38.60;29.50
30174;DHT22;16985;50.814;8.530;2022-07-19T14:35:44;38.60;29.00
30174;DHT22;16985;50.814;8.530;2022-07-19T14:38:10;38.60;29.00
30174;DHT22;16985;50.814;8.530;2022-07-19T14:40:36;38.70;29.10
30174;DHT22;16985;50.814;8.530;2022-07-19T14:43:02;38.60;29.00
30174;DHT22;16985;50.814;8.530;2022-07-19T14:45:28;38.70;29.00
30174;DHT22;16985;50.814;8.530;2022-07-19T14:47:54;38.60;29.20
30174;DHT22;16985;50.814;8.530;2022-07-19T14:50:19;38.50;29.10
30174;DHT22;16985;50.814;8.530;2022-07-19T14:52:45;38.50;29.40
30174;DHT22;16985;50.814;8.530;2022-07-19T14:55:11;38.50;28.60
30174;DHT22;16985;50.814;8.530;2022-07-19T14:57:37;38.50;28.40
30174;DHT22;16985;50.814;8.530;2022-07-19T15:00:05;38.40;28.50
30174;DHT22;16985;50.814;8.530;2022-07-19T15:02:32;38.40;28.50
30174;DHT22;16985;50.814;8.530;2022-07-19T15:04:58;38.40;28.80
30174;DHT22;16985;50.814;8.530;2022-07-19T15:07:25;38.50;28.40
30174;DHT22;16985;50.814;8.530;2022-07-19T15:09:51;38.30;28.20
30174;DHT22;16985;50.814;8.530;2022-07-19T15:12:18;38.30;28.80
30174;DHT22;16985;50.814;8.530;2022-07-19T15:14:44;38.20;28.60
30174;DHT22;16985;50.814;8.530;2022-07-19T15:17:10;38.20;29.00
30174;DHT22;16985;50.814;8.530;2022-07-19T15:19:35;38.20;29.20
30174;DHT22;16985;50.814;8.530;2022-07-19T15:22:02;38.20;29.30
30174;DHT22;16985;50.814;8.530;2022-07-19T15:24:28;38.20;29.30
30174;DHT22;16985;50.814;8.530;2022-07-19T15:26:54;38.10;29.20
30174;DHT22;16985;50.814;8.530;2022-07-19T15:29:20;38.00;29.00
30174;DHT22;16985;50.814;8.530;2022-07-19T15:31:46;38.00;28.60
30174;DHT22;16985;50.814;8.530;2022-07-19T15:34:12;38.00;28.10
30174;DHT22;16985;50.814;8.530;2022-07-19T15:36:38;38.00;28.30
30174;DHT22;16985;50.814;8.530;2022-07-19T15:39:04;37.80;28.10
30174;DHT22;16985;50.814;8.530;2022-07-19T15:41:30;37.80;27.90
30174;DHT22;16985;50.814;8.530;2022-07-19T15:44:00;37.70;28.10
30174;DHT22;16985;50.814;8.530;2022-07-19T15:46:27;37.70;28.50
30174;DHT22;16985;50.814;8.530;2022-07-19T15:49:01;37.60;28.70
30174;DHT22;16985;50.814;8.530;2022-07-19T15:51:28;37.60;29.20
30174;DHT22;16985;50.814;8.530;2022-07-19T15:53:54;37.50;29.40
30174;DHT22;16985;50.814;8.530;2022-07-19T15:56:21;37.40;29.50
30174;DHT22;16985;50.814;8.530;2022-07-19T15:58:47;37.40;29.50
30174;DHT22;16985;50.814;8.530;2022-07-19T16:01:13;37.30;29.30
30174;DHT22;16985;50.814;8.530;2022-07-19T16:03:41;37.20;29.30